sensor_id;sensor_type;location;lat;lon;timestamp;pressure;altitude;pressure_sealevel;temperature;humidity
41306;BME280;27051;50.376;19.152;2023-01-28T00:01:44;98558.91;;;2.46;53.27
41306;BME280;27051;50.376;19.152;2023-01-28T00:04:11;98557.77;;;2.51;53.22
41306;BME280;27051;50.376;19.152;2023-01-28T00:06:38;98555.67;;;2.56;52.98
41306;BME280;27051;50.376;19.152;2023-01-28T00:09:13;98556.14;;;2.57;52.98
41306;BME280;27051;50.376;19.152;2023-01-28T00:11:42;98558.24;;;2.60;53.05
41306;BME280;27051;50.376;19.152;2023-01-28T00:14:10;98562.71;;;2.58;52.67
41306;BME280;27051;50.376;19.152;2023-01-28T00:16:40;98560.06;;;2.49;52.73
41306;BME280;27051;50.376;19.152;2023-01-28T00:19:07;98561.08;;;2.49;52.95
41306;BME280;27051;50.376;19.152;2023-01-28T00:21:34;98562.18;;;2.50;52.79
41306;BME280;27051;50.376;19.152;2023-01-28T00:24:01;98563.46;;;2.48;52.89
41306;BME280;27051;50.376;19.152;2023-01-28T00:26:49;98564.23;;;2.46;52.75
41306;BME280;27051;50.376;19.152;2023-01-28T00:32:02;98564.45;;;2.45;52.94
41306;BME280;27051;50.376;19.152;2023-01-28T00:34:29;98566.83;;;2.45;52.94
41306;BME280;27051;50.376;19.152;2023-01-28T00:36:58;98567.77;;;2.46;52.83
41306;BME280;27051;50.376;19.152;2023-01-28T00:39:26;98567.98;;;2.47;52.89
41306;BME280;27051;50.376;19.152;2023-01-28T00:41:53;98568.92;;;2.49;52.99
41306;BME280;27051;50.376;19.152;2023-01-28T00:44:20;98568.15;;;2.53;53.03
41306;BME280;27051;50.376;19.152;2023-01-28T00:46:49;98565.95;;;2.57;52.92
41306;BME280;27051;50.376;19.152;2023-01-28T00:49:25;98566.55;;;2.56;53.00
41306;BME280;27051;50.376;19.152;2023-01-28T00:52:02;98564.72;;;2.59;52.84
41306;BME280;27051;50.376;19.152;2023-01-28T00:54:30;98567.67;;;2.65;53.03
41306;BME280;27051;50.376;19.152;2023-01-28T00:56:56;98566.65;;;2.66;52.91
41306;BME280;27051;50.376;19.152;2023-01-28T00:59:23;98568.14;;;2.66;53.04
41306;BME280;27051;50.376;19.152;2023-01-28T01:01:50;98567.54;;;2.70;53.05
41306;BME280;27051;50.376;19.152;2023-01-28T01:04:38;98564.56;;;2.68;52.81
41306;BME280;27051;50.376;19.152;2023-01-28T01:09:51;98566.48;;;2.66;52.85
41306;BME280;27051;50.376;19.152;2023-01-28T01:12:18;98572.44;;;2.66;52.99
41306;BME280;27051;50.376;19.152;2023-01-28T01:14:47;98569.00;;;2.63;52.89
41306;BME280;27051;50.376;19.152;2023-01-28T01:17:23;98567.48;;;2.61;52.80
41306;BME280;27051;50.376;19.152;2023-01-28T01:19:59;98571.45;;;2.54;52.74
41306;BME280;27051;50.376;19.152;2023-01-28T01:22:44;98570.23;;;2.49;52.76
41306;BME280;27051;50.376;19.152;2023-01-28T01:25:31;98578.80;;;2.47;52.84
41306;BME280;27051;50.376;19.152;2023-01-28T01:28:01;98579.58;;;2.41;52.89
41306;BME280;27051;50.376;19.152;2023-01-28T01:30:28;98583.20;;;2.38;52.88
41306;BME280;27051;50.376;19.152;2023-01-28T01:32:56;98582.88;;;2.36;52.94
41306;BME280;27051;50.376;19.152;2023-01-28T01:35:30;98583.44;;;2.35;53.03
41306;BME280;27051;50.376;19.152;2023-01-28T01:38:00;98584.44;;;2.35;53.02
41306;BME280;27051;50.376;19.152;2023-01-28T01:40:28;98586.09;;;2.35;53.03
41306;BME280;27051;50.376;19.152;2023-01-28T01:42:55;98587.71;;;2.37;53.07
41306;BME280;27051;50.376;19.152;2023-01-28T01:45:22;98590.16;;;2.36;52.80
41306;BME280;27051;50.376;19.152;2023-01-28T01:48:03;98590.39;;;2.31;52.88
41306;BME280;27051;50.376;19.152;2023-01-28T01:50:36;98588.36;;;2.36;52.90
41306;BME280;27051;50.376;19.152;2023-01-28T01:53:10;98594.83;;;2.37;52.75
41306;BME280;27051;50.376;19.152;2023-01-28T02:02:10;98596.11;;;2.33;52.99
41306;BME280;27051;50.376;19.152;2023-01-28T02:05:18;98597.33;;;2.33;52.82
41306;BME280;27051;50.376;19.152;2023-01-28T02:08:07;98597.65;;;2.32;53.00
41306;BME280;27051;50.376;19.152;2023-01-28T02:10:37;98597.65;;;2.34;53.01
41306;BME280;27051;50.376;19.152;2023-01-28T02:13:04;98592.49;;;2.35;53.11
41306;BME280;27051;50.376;19.152;2023-01-28T02:15:46;98587.71;;;2.36;53.00
41306;BME280;27051;50.376;19.152;2023-01-28T02:18:33;98586.27;;;2.39;52.99
41306;BME280;27051;50.376;19.152;2023-01-28T02:21:35;98587.50;;;2.37;53.02
41306;BME280;27051;50.376;19.152;2023-01-28T02:27:15;98595.53;;;2.44;52.95
41306;BME280;27051;50.376;19.152;2023-01-28T02:30:21;98596.64;;;2.44;52.99
41306;BME280;27051;50.376;19.152;2023-01-28T02:33:15;98599.05;;;2.44;53.03
41306;BME280;27051;50.376;19.152;2023-01-28T02:38:40;98601.70;;;2.43;53.15
41306;BME280;27051;50.376;19.152;2023-01-28T02:41:14;98598.98;;;2.44;53.14
41306;BME280;27051;50.376;19.152;2023-01-28T02:44:04;98597.46;;;2.43;53.13
41306;BME280;27051;50.376;19.152;2023-01-28T02:46:37;98594.73;;;2.45;53.12
41306;BME280;27051;50.376;19.152;2023-01-28T02:49:11;98596.23;;;2.43;53.16
41306;BME280;27051;50.376;19.152;2023-01-28T02:51:52;98602.07;;;2.43;53.14
41306;BME280;27051;50.376;19.152;2023-01-28T02:54:34;98605.61;;;2.44;53.16
41306;BME280;27051;50.376;19.152;2023-01-28T02:57:15;98605.10;;;2.39;52.89
41306;BME280;27051;50.376;19.152;2023-01-28T02:59:53;98602.48;;;2.32;53.20
41306;BME280;27051;50.376;19.152;2023-01-28T03:05:24;98602.40;;;2.27;53.19
41306;BME280;27051;50.376;19.152;2023-01-28T03:07:52;98604.81;;;2.24;53.36
41306;BME280;27051;50.376;19.152;2023-01-28T03:13:28;98601.61;;;2.26;53.30
41306;BME280;27051;50.376;19.152;2023-01-28T03:16:11;98599.96;;;2.27;53.29
41306;BME280;27051;50.376;19.152;2023-01-28T03:18:44;98606.05;;;2.26;53.40
41306;BME280;27051;50.376;19.152;2023-01-28T03:21:34;98607.23;;;2.25;53.19
41306;BME280;27051;50.376;19.152;2023-01-28T03:24:34;98608.79;;;2.22;53.38
41306;BME280;27051;50.376;19.152;2023-01-28T03:27:08;98610.95;;;2.23;53.35
41306;BME280;27051;50.376;19.152;2023-01-28T03:29:41;98607.36;;;2.19;53.45
41306;BME280;27051;50.376;19.152;2023-01-28T03:32:15;98611.83;;;2.16;53.23
41306;BME280;27051;50.376;19.152;2023-01-28T03:34:44;98613.39;;;2.12;53.43
41306;BME280;27051;50.376;19.152;2023-01-28T03:37:12;98614.34;;;2.12;53.59
41306;BME280;27051;50.376;19.152;2023-01-28T03:39:39;98612.35;;;2.18;53.51
41306;BME280;27051;50.376;19.152;2023-01-28T03:42:29;98611.33;;;2.23;53.43
41306;BME280;27051;50.376;19.152;2023-01-28T03:44:54;98612.23;;;2.24;53.47
41306;BME280;27051;50.376;19.152;2023-01-28T03:47:25;98611.90;;;2.26;53.48
41306;BME280;27051;50.376;19.152;2023-01-28T03:50:05;98597.84;;;2.26;53.61
41306;BME280;27051;50.376;19.152;2023-01-28T03:52:45;98600.38;;;2.28;53.43
41306;BME280;27051;50.376;19.152;2023-01-28T03:55:32;98602.08;;;2.28;53.24
41306;BME280;27051;50.376;19.152;2023-01-28T03:58:40;98603.20;;;2.26;53.28
41306;BME280;27051;50.376;19.152;2023-01-28T04:01:46;98599.59;;;2.27;53.41
41306;BME280;27051;50.376;19.152;2023-01-28T04:07:19;98600.64;;;2.28;53.43
41306;BME280;27051;50.376;19.152;2023-01-28T04:10:01;98599.02;;;2.27;53.27
41306;BME280;27051;50.376;19.152;2023-01-28T04:12:28;98601.67;;;2.26;53.16
41306;BME280;27051;50.376;19.152;2023-01-28T04:14:57;98602.61;;;2.26;53.13
41306;BME280;27051;50.376;19.152;2023-01-28T04:17:33;98602.51;;;2.27;53.34
41306;BME280;27051;50.376;19.152;2023-01-28T04:20:00;98606.00;;;2.29;53.30
41306;BME280;27051;50.376;19.152;2023-01-28T04:22:27;98606.67;;;2.32;53.21
41306;BME280;27051;50.376;19.152;2023-01-28T04:24:54;98605.06;;;2.36;53.31
41306;BME280;27051;50.376;19.152;2023-01-28T04:27:21;98606.70;;;2.38;53.22
41306;BME280;27051;50.376;19.152;2023-01-28T04:29:50;98605.16;;;2.40;53.17
41306;BME280;27051;50.376;19.152;2023-01-28T04:32:17;98609.75;;;2.41;53.16
41306;BME280;27051;50.376;19.152;2023-01-28T04:34:47;98604.88;;;2.41;53.15
41306;BME280;27051;50.376;19.152;2023-01-28T04:37:16;98605.42;;;2.39;53.30
41306;BME280;27051;50.376;19.152;2023-01-28T04:39:45;98605.35;;;2.43;53.31
41306;BME280;27051;50.376;19.152;2023-01-28T04:42:15;98607.48;;;2.43;53.12
41306;BME280;27051;50.376;19.152;2023-01-28T04:44:49;98607.63;;;2.44;53.26
41306;BME280;27051;50.376;19.152;2023-01-28T04:47:19;98607.40;;;2.47;53.23
41306;BME280;27051;50.376;19.152;2023-01-28T04:50:06;98606.66;;;2.49;53.17
41306;BME280;27051;50.376;19.152;2023-01-28T04:52:53;98609.65;;;2.52;53.24
41306;BME280;27051;50.376;19.152;2023-01-28T04:55:40;98610.83;;;2.52;53.15
41306;BME280;27051;50.376;19.152;2023-01-28T04:58:29;98612.12;;;2.48;53.07
41306;BME280;27051;50.376;19.152;2023-01-28T05:00:58;98609.76;;;2.42;53.25
41306;BME280;27051;50.376;19.152;2023-01-28T05:03:26;98606.73;;;2.41;53.18
41306;BME280;27051;50.376;19.152;2023-01-28T05:06:02;98600.98;;;2.36;53.14
41306;BME280;27051;50.376;19.152;2023-01-28T05:08:32;98601.19;;;2.37;53.44
41306;BME280;27051;50.376;19.152;2023-01-28T05:11:19;98607.36;;;2.43;53.07
41306;BME280;27051;50.376;19.152;2023-01-28T05:13:49;98608.20;;;2.36;53.16
41306;BME280;27051;50.376;19.152;2023-01-28T05:16:16;98612.97;;;2.35;53.23
41306;BME280;27051;50.376;19.152;2023-01-28T05:19:07;98614.83;;;2.36;53.17
41306;BME280;27051;50.376;19.152;2023-01-28T05:21:32;98620.08;;;2.36;53.30
41306;BME280;27051;50.376;19.152;2023-01-28T05:23:59;98622.73;;;2.34;53.24
41306;BME280;27051;50.376;19.152;2023-01-28T05:26:26;98631.92;;;2.34;53.21
41306;BME280;27051;50.376;19.152;2023-01-28T05:28:53;98632.45;;;2.34;53.32
41306;BME280;27051;50.376;19.152;2023-01-28T05:31:20;98635.48;;;2.34;53.26
41306;BME280;27051;50.376;19.152;2023-01-28T05:33:47;98635.79;;;2.35;53.32
41306;BME280;27051;50.376;19.152;2023-01-28T05:36:14;98640.34;;;2.37;53.19
41306;BME280;27051;50.376;19.152;2023-01-28T05:38:41;98645.16;;;2.39;53.23
41306;BME280;27051;50.376;19.152;2023-01-28T05:41:08;98646.70;;;2.38;53.23
41306;BME280;27051;50.376;19.152;2023-01-28T05:43:38;98651.73;;;2.41;53.33
41306;BME280;27051;50.376;19.152;2023-01-28T05:46:05;98646.59;;;2.42;53.29
41306;BME280;27051;50.376;19.152;2023-01-28T05:48:34;98651.34;;;2.44;53.25
41306;BME280;27051;50.376;19.152;2023-01-28T05:51:01;98656.33;;;2.46;53.21
41306;BME280;27051;50.376;19.152;2023-01-28T05:53:28;98657.83;;;2.43;53.11
41306;BME280;27051;50.376;19.152;2023-01-28T05:55:55;98660.69;;;2.43;53.32
41306;BME280;27051;50.376;19.152;2023-01-28T05:58:22;98660.05;;;2.44;53.27
41306;BME280;27051;50.376;19.152;2023-01-28T06:06:33;98676.89;;;2.36;53.17
41306;BME280;27051;50.376;19.152;2023-01-28T06:09:00;98679.99;;;2.33;53.22
41306;BME280;27051;50.376;19.152;2023-01-28T06:11:34;98680.48;;;2.28;53.13
41306;BME280;27051;50.376;19.152;2023-01-28T06:14:04;98679.54;;;2.27;53.25
41306;BME280;27051;50.376;19.152;2023-01-28T06:16:33;98683.77;;;2.28;53.33
41306;BME280;27051;50.376;19.152;2023-01-28T06:19:10;98687.55;;;2.24;53.14
41306;BME280;27051;50.376;19.152;2023-01-28T06:21:40;98693.88;;;2.21;53.18
41306;BME280;27051;50.376;19.152;2023-01-28T06:24:06;98697.00;;;2.20;53.31
41306;BME280;27051;50.376;19.152;2023-01-28T06:26:36;98701.39;;;2.24;53.42
41306;BME280;27051;50.376;19.152;2023-01-28T06:29:04;98705.53;;;2.24;53.43
41306;BME280;27051;50.376;19.152;2023-01-28T06:32:11;98704.05;;;2.23;53.31
41306;BME280;27051;50.376;19.152;2023-01-28T06:35:20;98710.64;;;2.20;53.23
41306;BME280;27051;50.376;19.152;2023-01-28T06:38:11;98710.20;;;2.20;53.47
41306;BME280;27051;50.376;19.152;2023-01-28T06:41:01;98712.70;;;2.22;53.54
41306;BME280;27051;50.376;19.152;2023-01-28T06:44:10;98711.30;;;2.28;53.56
41306;BME280;27051;50.376;19.152;2023-01-28T06:46:43;98714.06;;;2.28;53.42
41306;BME280;27051;50.376;19.152;2023-01-28T06:52:50;98718.15;;;2.28;53.32
41306;BME280;27051;50.376;19.152;2023-01-28T06:55:57;98716.88;;;2.27;53.22
41306;BME280;27051;50.376;19.152;2023-01-28T06:58:33;98718.84;;;2.28;53.32
41306;BME280;27051;50.376;19.152;2023-01-28T07:01:20;98721.27;;;2.30;53.26
41306;BME280;27051;50.376;19.152;2023-01-28T07:04:30;98722.34;;;2.28;53.13
41306;BME280;27051;50.376;19.152;2023-01-28T07:06:55;98727.33;;;2.24;53.08
41306;BME280;27051;50.376;19.152;2023-01-28T07:10:03;98729.73;;;2.23;53.25
41306;BME280;27051;50.376;19.152;2023-01-28T07:12:32;98722.55;;;2.26;53.23
41306;BME280;27051;50.376;19.152;2023-01-28T07:15:41;98725.04;;;2.29;53.15
41306;BME280;27051;50.376;19.152;2023-01-28T07:18:15;98732.99;;;2.30;53.18
41306;BME280;27051;50.376;19.152;2023-01-28T07:21:24;98738.83;;;2.30;53.07
41306;BME280;27051;50.376;19.152;2023-01-28T07:24:30;98737.34;;;2.28;53.12
41306;BME280;27051;50.376;19.152;2023-01-28T07:27:38;98740.84;;;2.32;53.10
41306;BME280;27051;50.376;19.152;2023-01-28T07:30:45;98748.00;;;2.32;53.10
41306;BME280;27051;50.376;19.152;2023-01-28T07:33:53;98751.49;;;2.36;53.20
41306;BME280;27051;50.376;19.152;2023-01-28T07:37:00;98753.83;;;2.42;53.12
41306;BME280;27051;50.376;19.152;2023-01-28T07:39:49;98760.24;;;2.39;53.13
41306;BME280;27051;50.376;19.152;2023-01-28T07:42:24;98755.84;;;2.38;53.01
41306;BME280;27051;50.376;19.152;2023-01-28T07:45:33;98758.42;;;2.43;53.24
41306;BME280;27051;50.376;19.152;2023-01-28T07:48:40;98755.19;;;2.47;52.98
41306;BME280;27051;50.376;19.152;2023-01-28T07:51:47;98754.65;;;2.48;52.99
41306;BME280;27051;50.376;19.152;2023-01-28T08:00:47;98757.11;;;2.59;52.75
41306;BME280;27051;50.376;19.152;2023-01-28T08:03:55;98764.33;;;2.64;52.74
41306;BME280;27051;50.376;19.152;2023-01-28T08:10:10;98771.04;;;2.71;52.65
41306;BME280;27051;50.376;19.152;2023-01-28T08:13:17;98768.86;;;2.73;52.30
41306;BME280;27051;50.376;19.152;2023-01-28T08:19:32;98777.36;;;2.73;52.27
41306;BME280;27051;50.376;19.152;2023-01-28T08:22:39;98779.27;;;2.70;52.50
41306;BME280;27051;50.376;19.152;2023-01-28T08:28:53;98775.56;;;2.84;52.32
41306;BME280;27051;50.376;19.152;2023-01-28T08:41:12;98785.67;;;2.90;51.84
41306;BME280;27051;50.376;19.152;2023-01-28T08:44:21;98787.60;;;2.90;52.07
41306;BME280;27051;50.376;19.152;2023-01-28T08:53:22;98782.25;;;2.99;51.79
41306;BME280;27051;50.376;19.152;2023-01-28T08:56:29;98780.08;;;2.98;51.85
41306;BME280;27051;50.376;19.152;2023-01-28T08:59:37;98780.48;;;3.06;51.92
41306;BME280;27051;50.376;19.152;2023-01-28T09:05:51;98775.11;;;3.35;51.69
41306;BME280;27051;50.376;19.152;2023-01-28T09:08:59;98778.95;;;3.43;51.50
41306;BME280;27051;50.376;19.152;2023-01-28T09:11:43;98780.30;;;3.50;51.62
41306;BME280;27051;50.376;19.152;2023-01-28T09:14:33;98782.64;;;3.64;51.76
41306;BME280;27051;50.376;19.152;2023-01-28T09:17:29;98782.62;;;3.75;51.16
41306;BME280;27051;50.376;19.152;2023-01-28T09:20:16;98785.75;;;3.76;51.20
41306;BME280;27051;50.376;19.152;2023-01-28T09:26:16;98795.20;;;3.86;51.32
41306;BME280;27051;50.376;19.152;2023-01-28T09:28:51;98798.27;;;3.90;51.23
41306;BME280;27051;50.376;19.152;2023-01-28T09:32:00;98801.61;;;3.89;51.23
41306;BME280;27051;50.376;19.152;2023-01-28T09:35:06;98802.15;;;3.80;51.10
41306;BME280;27051;50.376;19.152;2023-01-28T09:47:36;98805.57;;;3.55;51.19
41306;BME280;27051;50.376;19.152;2023-01-28T09:54:13;98797.52;;;3.66;51.19
41306;BME280;27051;50.376;19.152;2023-01-28T09:57:18;98795.13;;;3.74;51.08
41306;BME280;27051;50.376;19.152;2023-01-28T10:00:25;98788.40;;;3.85;51.24
41306;BME280;27051;50.376;19.152;2023-01-28T10:17:14;98777.94;;;4.15;50.84
41306;BME280;27051;50.376;19.152;2023-01-28T10:27:29;98783.29;;;4.63;50.58
41306;BME280;27051;50.376;19.152;2023-01-28T10:30:14;98782.84;;;4.61;50.49
41306;BME280;27051;50.376;19.152;2023-01-28T10:35:41;98779.98;;;4.31;50.52
41306;BME280;27051;50.376;19.152;2023-01-28T10:38:38;98778.09;;;4.29;50.72
41306;BME280;27051;50.376;19.152;2023-01-28T10:41:47;98776.47;;;4.26;50.74
41306;BME280;27051;50.376;19.152;2023-01-28T10:44:57;98777.36;;;4.32;50.80
41306;BME280;27051;50.376;19.152;2023-01-28T10:50:58;98773.41;;;4.32;50.67
41306;BME280;27051;50.376;19.152;2023-01-28T10:54:21;98784.02;;;4.31;50.63
41306;BME280;27051;50.376;19.152;2023-01-28T10:56:57;98785.39;;;4.23;50.64
41306;BME280;27051;50.376;19.152;2023-01-28T11:00:12;98784.55;;;4.21;50.66
41306;BME280;27051;50.376;19.152;2023-01-28T11:03:18;98783.84;;;4.17;50.85
41306;BME280;27051;50.376;19.152;2023-01-28T11:09:36;98782.48;;;4.13;50.59
41306;BME280;27051;50.376;19.152;2023-01-28T11:12:20;98784.84;;;4.06;50.80
41306;BME280;27051;50.376;19.152;2023-01-28T11:18:14;98782.06;;;4.06;50.82
41306;BME280;27051;50.376;19.152;2023-01-28T11:21:04;98779.11;;;4.02;50.74
41306;BME280;27051;50.376;19.152;2023-01-28T11:24:14;98776.29;;;3.98;50.91
41306;BME280;27051;50.376;19.152;2023-01-28T11:27:25;98776.64;;;3.92;50.75
41306;BME280;27051;50.376;19.152;2023-01-28T11:30:43;98774.24;;;3.87;50.76
41306;BME280;27051;50.376;19.152;2023-01-28T11:39:32;98769.23;;;4.14;51.14
41306;BME280;27051;50.376;19.152;2023-01-28T11:42:22;98768.11;;;4.25;51.02
41306;BME280;27051;50.376;19.152;2023-01-28T12:07:44;98764.18;;;4.31;50.43
41306;BME280;27051;50.376;19.152;2023-01-28T12:17:02;98760.19;;;4.29;50.56
41306;BME280;27051;50.376;19.152;2023-01-28T12:45:54;98763.25;;;4.55;50.84
41306;BME280;27051;50.376;19.152;2023-01-28T12:48:48;98763.80;;;4.58;50.72
41306;BME280;27051;50.376;19.152;2023-01-28T12:57:39;98762.73;;;4.36;50.72
41306;BME280;27051;50.376;19.152;2023-01-28T13:00:47;98759.38;;;4.37;50.72
41306;BME280;27051;50.376;19.152;2023-01-28T13:03:58;98761.16;;;4.35;50.76
41306;BME280;27051;50.376;19.152;2023-01-28T13:16:22;98772.95;;;4.26;50.96
41306;BME280;27051;50.376;19.152;2023-01-28T13:22:42;98776.22;;;4.23;50.99
41306;BME280;27051;50.376;19.152;2023-01-28T13:26:07;98775.96;;;4.23;51.12
41306;BME280;27051;50.376;19.152;2023-01-28T13:32:27;98770.92;;;4.15;51.07
41306;BME280;27051;50.376;19.152;2023-01-28T13:34:55;98773.92;;;4.13;51.22
41306;BME280;27051;50.376;19.152;2023-01-28T13:37:43;98781.00;;;4.17;51.20
41306;BME280;27051;50.376;19.152;2023-01-28T13:40:37;98785.95;;;4.13;51.24
41306;BME280;27051;50.376;19.152;2023-01-28T13:46:30;98787.65;;;4.13;51.21
41306;BME280;27051;50.376;19.152;2023-01-28T13:52:31;98790.60;;;4.09;51.18
41306;BME280;27051;50.376;19.152;2023-01-28T13:55:58;98788.11;;;4.03;51.21
41306;BME280;27051;50.376;19.152;2023-01-28T13:59:03;98789.45;;;4.02;51.18
41306;BME280;27051;50.376;19.152;2023-01-28T14:11:22;98796.75;;;3.91;51.27
41306;BME280;27051;50.376;19.152;2023-01-28T14:19:44;98800.05;;;3.85;51.56
41306;BME280;27051;50.376;19.152;2023-01-28T14:22:18;98794.94;;;3.86;51.64
41306;BME280;27051;50.376;19.152;2023-01-28T14:27:34;98791.24;;;3.88;51.58
41306;BME280;27051;50.376;19.152;2023-01-28T14:32:57;98799.59;;;3.90;51.68
41306;BME280;27051;50.376;19.152;2023-01-28T14:35:31;98802.79;;;3.89;51.75
41306;BME280;27051;50.376;19.152;2023-01-28T14:38:16;98803.38;;;3.88;51.81
41306;BME280;27051;50.376;19.152;2023-01-28T14:40:53;98807.95;;;3.88;51.67
41306;BME280;27051;50.376;19.152;2023-01-28T14:43:26;98811.73;;;3.81;51.75
41306;BME280;27051;50.376;19.152;2023-01-28T15:04:34;98827.92;;;3.76;52.36
41306;BME280;27051;50.376;19.152;2023-01-28T15:13:44;98834.66;;;3.61;52.22
41306;BME280;27051;50.376;19.152;2023-01-28T15:19:35;98835.20;;;3.51;52.48
41306;BME280;27051;50.376;19.152;2023-01-28T15:22:41;98841.60;;;3.56;52.58
41306;BME280;27051;50.376;19.152;2023-01-28T15:25:36;98839.23;;;3.52;52.52
41306;BME280;27051;50.376;19.152;2023-01-28T15:28:30;98841.36;;;3.49;52.66
41306;BME280;27051;50.376;19.152;2023-01-28T15:31:14;98844.70;;;3.53;52.60
41306;BME280;27051;50.376;19.152;2023-01-28T15:34:44;98848.80;;;3.48;52.64
41306;BME280;27051;50.376;19.152;2023-01-28T15:37:12;98850.30;;;3.48;52.75
41306;BME280;27051;50.376;19.152;2023-01-28T15:39:59;98854.13;;;3.49;52.78
41306;BME280;27051;50.376;19.152;2023-01-28T15:42:29;98854.49;;;3.51;52.83
41306;BME280;27051;50.376;19.152;2023-01-28T15:45:00;98861.27;;;3.43;52.75
41306;BME280;27051;50.376;19.152;2023-01-28T15:47:30;98867.13;;;3.42;52.98
41306;BME280;27051;50.376;19.152;2023-01-28T15:50:02;98870.72;;;3.46;52.98
41306;BME280;27051;50.376;19.152;2023-01-28T15:52:33;98875.14;;;3.47;53.08
41306;BME280;27051;50.376;19.152;2023-01-28T15:58:29;98880.52;;;3.42;53.09
41306;BME280;27051;50.376;19.152;2023-01-28T16:04:18;98883.49;;;3.31;53.22
41306;BME280;27051;50.376;19.152;2023-01-28T16:06:47;98883.16;;;3.31;53.43
41306;BME280;27051;50.376;19.152;2023-01-28T16:09:40;98887.35;;;3.35;53.45
41306;BME280;27051;50.376;19.152;2023-01-28T16:12:10;98885.38;;;3.38;53.61
41306;BME280;27051;50.376;19.152;2023-01-28T16:15:04;98882.00;;;3.44;53.67
41306;BME280;27051;50.376;19.152;2023-01-28T16:17:44;98888.41;;;3.37;53.51
41306;BME280;27051;50.376;19.152;2023-01-28T16:20:24;98887.59;;;3.26;53.57
41306;BME280;27051;50.376;19.152;2023-01-28T16:22:54;98884.36;;;3.20;53.78
41306;BME280;27051;50.376;19.152;2023-01-28T16:25:29;98887.12;;;3.25;54.09
41306;BME280;27051;50.376;19.152;2023-01-28T16:27:58;98885.66;;;3.30;53.95
41306;BME280;27051;50.376;19.152;2023-01-28T16:30:26;98891.02;;;3.33;54.04
41306;BME280;27051;50.376;19.152;2023-01-28T16:32:54;98889.50;;;3.27;53.95
41306;BME280;27051;50.376;19.152;2023-01-28T16:35:28;98892.94;;;3.16;54.04
41306;BME280;27051;50.376;19.152;2023-01-28T16:37:55;98895.05;;;3.19;54.35
41306;BME280;27051;50.376;19.152;2023-01-28T16:40:25;98895.30;;;3.24;54.30
41306;BME280;27051;50.376;19.152;2023-01-28T16:42:53;98892.05;;;3.28;54.36
41306;BME280;27051;50.376;19.152;2023-01-28T16:45:24;98893.02;;;3.22;54.29
41306;BME280;27051;50.376;19.152;2023-01-28T16:47:52;98895.93;;;3.27;54.46
41306;BME280;27051;50.376;19.152;2023-01-28T16:50:24;98887.06;;;3.26;54.64
41306;BME280;27051;50.376;19.152;2023-01-28T16:52:53;98891.79;;;3.25;54.52
41306;BME280;27051;50.376;19.152;2023-01-28T16:55:21;98902.09;;;3.26;54.77
41306;BME280;27051;50.376;19.152;2023-01-28T16:57:57;98900.26;;;3.22;54.60
41306;BME280;27051;50.376;19.152;2023-01-28T17:00:25;98902.71;;;3.18;54.64
41306;BME280;27051;50.376;19.152;2023-01-28T17:02:53;98901.10;;;3.26;54.95
41306;BME280;27051;50.376;19.152;2023-01-28T17:05:21;98901.39;;;3.34;54.91
41306;BME280;27051;50.376;19.152;2023-01-28T17:07:57;98901.56;;;3.41;54.79
41306;BME280;27051;50.376;19.152;2023-01-28T17:10:44;98900.98;;;3.44;54.74
41306;BME280;27051;50.376;19.152;2023-01-28T17:13:16;98902.30;;;3.43;54.71
41306;BME280;27051;50.376;19.152;2023-01-28T17:16:03;98897.53;;;3.41;54.72
41306;BME280;27051;50.376;19.152;2023-01-28T17:18:33;98893.64;;;3.41;54.94
41306;BME280;27051;50.376;19.152;2023-01-28T17:23:51;98898.89;;;3.45;54.85
41306;BME280;27051;50.376;19.152;2023-01-28T17:26:18;98900.95;;;3.49;55.05
41306;BME280;27051;50.376;19.152;2023-01-28T17:28:50;98899.32;;;3.46;54.90
41306;BME280;27051;50.376;19.152;2023-01-28T17:31:24;98907.02;;;3.47;55.14
41306;BME280;27051;50.376;19.152;2023-01-28T17:34:11;98906.36;;;3.53;55.17
41306;BME280;27051;50.376;19.152;2023-01-28T17:36:39;98905.23;;;3.57;55.06
41306;BME280;27051;50.376;19.152;2023-01-28T17:39:06;98904.02;;;3.53;55.06
41306;BME280;27051;50.376;19.152;2023-01-28T17:41:33;98911.38;;;3.46;55.04
41306;BME280;27051;50.376;19.152;2023-01-28T17:44:00;98913.88;;;3.47;55.28
41306;BME280;27051;50.376;19.152;2023-01-28T17:46:29;98913.61;;;3.47;55.23
41306;BME280;27051;50.376;19.152;2023-01-28T17:48:56;98909.52;;;3.46;55.21
41306;BME280;27051;50.376;19.152;2023-01-28T17:51:23;98917.13;;;3.42;55.40
41306;BME280;27051;50.376;19.152;2023-01-28T17:53:51;98921.23;;;3.43;55.54
41306;BME280;27051;50.376;19.152;2023-01-28T17:56:23;98929.41;;;3.43;55.45
41306;BME280;27051;50.376;19.152;2023-01-28T17:58:52;98927.33;;;3.46;55.67
41306;BME280;27051;50.376;19.152;2023-01-28T18:01:20;98931.84;;;3.52;55.66
41306;BME280;27051;50.376;19.152;2023-01-28T18:03:48;98931.23;;;3.53;55.74
41306;BME280;27051;50.376;19.152;2023-01-28T18:06:16;98933.63;;;3.56;55.65
41306;BME280;27051;50.376;19.152;2023-01-28T18:08:50;98930.97;;;3.55;55.55
41306;BME280;27051;50.376;19.152;2023-01-28T18:11:18;98926.92;;;3.55;55.72
41306;BME280;27051;50.376;19.152;2023-01-28T18:13:54;98929.14;;;3.60;55.77
41306;BME280;27051;50.376;19.152;2023-01-28T18:16:21;98937.80;;;3.61;55.78
41306;BME280;27051;50.376;19.152;2023-01-28T18:21:42;98937.03;;;3.65;55.86
41306;BME280;27051;50.376;19.152;2023-01-28T18:24:12;98937.52;;;3.64;55.80
41306;BME280;27051;50.376;19.152;2023-01-28T18:26:39;98938.63;;;3.54;55.74
41306;BME280;27051;50.376;19.152;2023-01-28T18:29:06;98940.66;;;3.50;55.90
41306;BME280;27051;50.376;19.152;2023-01-28T18:31:33;98939.62;;;3.45;55.84
41306;BME280;27051;50.376;19.152;2023-01-28T18:34:05;98938.14;;;3.39;56.14
41306;BME280;27051;50.376;19.152;2023-01-28T18:36:32;98938.05;;;3.47;56.19
41306;BME280;27051;50.376;19.152;2023-01-28T18:39:02;98937.27;;;3.46;56.12
41306;BME280;27051;50.376;19.152;2023-01-28T18:41:29;98938.92;;;3.43;56.23
41306;BME280;27051;50.376;19.152;2023-01-28T18:44:05;98940.95;;;3.41;56.19